Sand Creek, Michigan
Current Conditions -  °F | °C
As of 8:53 PM on Saturday 20 Dec 2014 (Local Time) from KADG Reporting Station
Overcast Overcast  
Wind Chill: -2°   Ceiling: 2300
Heat Index: -2°   Visibility: 8mi
Dew Point: -5°   Wind: 0mph
Humidity: 78%   Direction: NA
Pressure: 30.3"   Gusts: NA
Location:  41.83°N, 84.1°W
Report Text: KADG 210153Z AUTO 00000KT 8SM OVC023 M02/M05 A3030 RMK AO2 SLP271 T10171050 $
Loading
Personal Weather Stations






























Interactive Weather Map New forecast layout! Learn more

10-Day Weather Forecast

Advertisements
Track Severe Weather on mobile